Brugge, Belgium
Current Conditions -  °F | °C
As of 3:20 PM on Saturday 25 Oct 2014 (Local Time) from EBOS Reporting Station
Broken Clouds Broken Clouds  
Wind Chill: 57°   Ceiling: 4400
Heat Index: 57°   Visibility: 6mi
Dew Point: 45°   Wind: 10mph
Humidity: 63%   Direction: 260°W
Pressure: 30.12"   Gusts: NA
Location:  51.21°N, 3.22°E
Report Text: EBOS 251320Z 26009KT 9999 FEW030 BKN044 14/07 Q1020 NOSIG
Loading
Personal Weather Stations






























Interactive Weather Map
Tropical Storm Tracking
New forecast layout! Learn more

10-Day Weather Forecast

Advertisements
Track Severe Weather on mobile